createdAt,value
2023-01-07T00:01:02.990Z,9.90
2023-01-07T00:03:30.146Z,9.90
2023-01-07T00:06:05.501Z,10.00
2023-01-07T00:08:36.927Z,10.00
2023-01-07T00:11:05.349Z,10.00
2023-01-07T00:13:32.405Z,10.10
2023-01-07T00:16:00.869Z,10.10
2023-01-07T00:18:27.753Z,10.10
2023-01-07T00:21:04.344Z,10.20
2023-01-07T00:23:32.406Z,10.10
2023-01-07T00:26:16.924Z,10.20
2023-01-07T00:28:45.867Z,10.20
2023-01-07T00:31:24.116Z,10.20
2023-01-07T00:34:06.665Z,10.30
2023-01-07T00:36:39.476Z,10.30
2023-01-07T00:39:15.989Z,10.40
2023-01-07T00:42:06.363Z,10.50
2023-01-07T00:44:33.843Z,10.50
2023-01-07T00:47:00.847Z,10.50
2023-01-07T00:49:27.634Z,10.50
2023-01-07T00:51:54.340Z,10.50
2023-01-07T00:54:21.391Z,10.50
2023-01-07T00:56:48.070Z,10.50
2023-01-07T00:59:14.778Z,10.50
2023-01-07T01:01:43.292Z,10.50
2023-01-07T01:04:10.061Z,10.50
2023-01-07T01:06:36.744Z,10.60
2023-01-07T01:09:03.515Z,10.60
2023-01-07T01:11:30.173Z,10.60
2023-01-07T01:13:56.845Z,10.60
2023-01-07T01:16:23.675Z,10.50
2023-01-07T01:18:50.434Z,10.50
2023-01-07T01:21:17.204Z,10.40
2023-01-07T01:23:44.599Z,10.40
2023-01-07T01:26:16.455Z,10.30
2023-01-07T01:28:43.756Z,10.20
2023-01-07T01:31:12.678Z,10.20
2023-01-07T01:33:48.373Z,10.20
2023-01-07T01:36:15.069Z,10.10
2023-01-07T01:38:42.955Z,10.10
2023-01-07T01:41:12.383Z,10.10
2023-01-07T01:43:42.805Z,10.10
2023-01-07T01:46:13.579Z,10.20
2023-01-07T01:48:53.433Z,10.20
2023-01-07T01:51:23.624Z,10.20
2023-01-07T01:53:51.818Z,10.20
2023-01-07T01:56:30.310Z,10.30
2023-01-07T01:59:00.999Z,10.30
2023-01-07T02:01:27.897Z,10.30
2023-01-07T02:03:57.592Z,10.40
2023-01-07T02:06:26.770Z,10.40
2023-01-07T02:08:54.781Z,10.40
2023-01-07T02:11:46.994Z,10.40
2023-01-07T02:14:41.025Z,10.40
2023-01-07T02:17:37.607Z,10.50
2023-01-07T02:20:07.229Z,10.50
2023-01-07T02:23:26.441Z,10.50
2023-01-07T02:26:02.217Z,10.50
2023-01-07T02:29:06.698Z,10.50
2023-01-07T02:31:45.642Z,10.40
2023-01-07T02:34:51.327Z,10.30
2023-01-07T02:37:38.078Z,10.30
2023-01-07T02:40:19.138Z,10.20
2023-01-07T02:43:07.023Z,10.40
2023-01-07T02:46:06.260Z,10.10
2023-01-07T02:48:34.099Z,10.10
2023-01-07T02:51:00.731Z,10.10
2023-01-07T02:53:27.709Z,10.10
2023-01-07T02:56:21.162Z,10.10
2023-01-07T02:59:15.245Z,10.10
2023-01-07T03:02:01.825Z,10.10
2023-01-07T03:04:53.295Z,10.00
2023-01-07T03:07:57.823Z,10.00
2023-01-07T03:10:40.788Z,10.00
2023-01-07T03:13:16.234Z,10.00
2023-01-07T03:15:53.216Z,9.90
2023-01-07T03:18:28.667Z,9.90
2023-01-07T03:21:07.499Z,9.80
2023-01-07T03:23:39.458Z,9.80
2023-01-07T03:26:07.672Z,9.90
2023-01-07T03:28:41.428Z,9.80
2023-01-07T03:31:13.564Z,9.80
2023-01-07T03:34:03.216Z,9.80
2023-01-07T03:36:45.096Z,9.80
2023-01-07T03:39:13.855Z,9.80
2023-01-07T03:42:00.033Z,9.80
2023-01-07T03:44:27.129Z,9.80
2023-01-07T03:46:54.168Z,9.80
2023-01-07T03:49:20.955Z,9.80
2023-01-07T03:51:49.419Z,9.80
2023-01-07T03:54:16.645Z,9.80
2023-01-07T03:56:43.364Z,9.90
2023-01-07T03:59:10.085Z,9.80
2023-01-07T04:01:36.994Z,9.80
2023-01-07T04:04:04.334Z,9.80
2023-01-07T04:06:31.460Z,9.90
2023-01-07T04:08:58.444Z,9.90
2023-01-07T04:11:25.905Z,9.90
2023-01-07T04:13:53.911Z,9.90
2023-01-07T04:16:20.928Z,9.90
2023-01-07T04:18:48.262Z,10.00
2023-01-07T04:21:15.193Z,10.00
2023-01-07T04:23:41.864Z,10.00
2023-01-07T04:26:09.942Z,10.00
2023-01-07T04:28:38.351Z,10.10
2023-01-07T04:31:05.204Z,10.10
2023-01-07T04:33:35.847Z,10.10
2023-01-07T04:36:03.264Z,10.10
2023-01-07T04:38:30.268Z,10.10
2023-01-07T04:40:57.127Z,10.10
2023-01-07T04:43:23.971Z,10.10
2023-01-07T04:45:50.745Z,10.10
2023-01-07T04:48:18.350Z,10.10
2023-01-07T04:50:47.264Z,10.10
2023-01-07T04:53:15.572Z,10.10
2023-01-07T04:55:43.945Z,10.10
2023-01-07T04:58:12.826Z,10.10
2023-01-07T05:00:40.143Z,10.10
2023-01-07T05:03:07.545Z,10.10
2023-01-07T05:05:35.465Z,10.10
2023-01-07T05:08:03.080Z,10.10
2023-01-07T05:10:31.253Z,10.00
2023-01-07T05:12:57.971Z,10.00
2023-01-07T05:15:25.239Z,10.00
2023-01-07T05:17:54.035Z,10.00
2023-01-07T05:20:24.134Z,10.00
2023-01-07T05:22:50.897Z,9.90
2023-01-07T05:25:18.887Z,9.90
2023-01-07T05:27:45.702Z,9.80
2023-01-07T05:30:13.195Z,9.80
2023-01-07T05:32:39.890Z,9.70
2023-01-07T05:35:07.233Z,9.60
2023-01-07T05:37:34.244Z,9.60
2023-01-07T05:40:02.048Z,9.70
2023-01-07T05:42:29.126Z,9.60
2023-01-07T05:44:56.018Z,9.60
2023-01-07T05:47:22.720Z,9.60
2023-01-07T05:49:49.527Z,9.50
2023-01-07T05:52:16.427Z,9.60
2023-01-07T05:54:43.184Z,9.60
2023-01-07T05:57:11.172Z,9.50
2023-01-07T05:59:38.468Z,9.50
2023-01-07T06:02:05.430Z,9.50
2023-01-07T06:04:34.065Z,9.50
2023-01-07T06:07:01.276Z,9.40
2023-01-07T06:09:29.819Z,9.40
2023-01-07T06:11:56.790Z,9.40
2023-01-07T06:14:23.441Z,9.40
2023-01-07T06:16:50.072Z,9.40
2023-01-07T06:19:16.777Z,9.30
2023-01-07T06:21:43.450Z,9.30
2023-01-07T06:24:10.738Z,9.30
2023-01-07T06:26:37.381Z,9.30
2023-01-07T06:29:04.050Z,9.20
2023-01-07T06:31:30.755Z,9.30
2023-01-07T06:33:57.385Z,9.30
2023-01-07T06:36:24.026Z,9.30
2023-01-07T06:38:50.723Z,9.30
2023-01-07T06:41:17.394Z,9.30
2023-01-07T06:43:44.065Z,9.30
2023-01-07T06:46:10.974Z,9.30
2023-01-07T06:48:37.693Z,9.20
2023-01-07T06:51:04.417Z,9.20
2023-01-07T06:53:31.229Z,9.20
2023-01-07T06:55:57.874Z,9.20
2023-01-07T06:58:24.609Z,9.20
2023-01-07T07:00:51.393Z,9.20
2023-01-07T07:03:18.070Z,9.30
2023-01-07T07:05:44.876Z,9.20
2023-01-07T07:08:11.549Z,9.30
2023-01-07T07:10:38.273Z,9.20
2023-01-07T07:13:04.925Z,9.30
2023-01-07T07:15:31.677Z,9.30
2023-01-07T07:17:58.359Z,9.20
2023-01-07T07:20:25.018Z,9.20
2023-01-07T07:22:51.653Z,9.20
2023-01-07T07:25:18.389Z,9.20
2023-01-07T07:27:46.448Z,9.30
2023-01-07T07:30:15.109Z,9.40
2023-01-07T07:32:42.723Z,9.40
2023-01-07T07:35:09.937Z,9.60
2023-01-07T07:37:36.871Z,9.60
2023-01-07T07:40:05.032Z,9.60
2023-01-07T07:42:31.894Z,9.60
2023-01-07T07:45:19.761Z,9.60
2023-01-07T07:47:46.698Z,9.60
2023-01-07T07:50:13.354Z,9.70
2023-01-07T07:52:40.730Z,9.70
2023-01-07T07:55:20.757Z,9.80
2023-01-07T07:57:58.275Z,9.80
2023-01-07T08:00:25.120Z,9.80
2023-01-07T08:02:51.804Z,9.80
2023-01-07T08:05:18.641Z,9.80
2023-01-07T08:07:45.382Z,9.80
2023-01-07T08:10:12.191Z,9.80
2023-01-07T08:12:39.373Z,9.90
2023-01-07T08:15:08.053Z,9.90
2023-01-07T08:17:36.312Z,9.90
2023-01-07T08:20:04.420Z,10.00
2023-01-07T08:22:31.328Z,10.00
2023-01-07T08:24:58.023Z,10.00
2023-01-07T08:27:25.746Z,10.10
2023-01-07T08:29:52.375Z,10.20
2023-01-07T08:32:19.094Z,10.20
2023-01-07T08:34:45.887Z,10.20
2023-01-07T08:37:12.537Z,10.20
2023-01-07T08:39:39.249Z,10.20
2023-01-07T08:42:06.162Z,10.20
2023-01-07T08:44:34.492Z,10.20
2023-01-07T08:47:01.289Z,10.20
2023-01-07T08:49:28.008Z,10.20
2023-01-07T08:51:54.652Z,10.20
2023-01-07T08:54:21.330Z,10.10
2023-01-07T08:56:48.169Z,10.20
2023-01-07T08:59:15.138Z,10.20
2023-01-07T09:01:41.904Z,10.20
2023-01-07T09:04:08.621Z,10.20
2023-01-07T09:06:35.293Z,10.20
2023-01-07T09:09:01.928Z,10.20
2023-01-07T09:11:28.629Z,10.20
2023-01-07T09:13:55.360Z,10.20
2023-01-07T09:16:22.121Z,10.20
2023-01-07T09:18:49.286Z,10.20
2023-01-07T09:21:26.794Z,10.20
2023-01-07T09:23:53.593Z,10.30
2023-01-07T09:26:20.284Z,10.30
2023-01-07T09:28:46.914Z,10.50
2023-01-07T09:31:13.601Z,10.50
2023-01-07T09:33:40.889Z,10.50
2023-01-07T09:36:07.898Z,10.60
2023-01-07T09:38:34.710Z,10.60
2023-01-07T09:41:01.795Z,10.70
2023-01-07T09:44:00.248Z,10.80
2023-01-07T09:46:17.395Z,10.80
2023-01-07T09:48:47.388Z,10.80
2023-01-07T09:51:43.756Z,10.90
2023-01-07T09:54:33.046Z,11.00
2023-01-07T09:56:59.849Z,11.00
2023-01-07T09:59:26.829Z,11.00
2023-01-07T10:02:17.567Z,11.10
2023-01-07T10:04:57.561Z,11.20
2023-01-07T10:07:36.766Z,11.40
2023-01-07T10:10:17.066Z,11.40
2023-01-07T10:12:49.414Z,11.50
2023-01-07T10:15:35.625Z,11.60
2023-01-07T10:18:33.392Z,11.70
2023-01-07T10:21:12.057Z,11.70
2023-01-07T10:23:42.193Z,11.60
2023-01-07T10:26:32.321Z,11.60
2023-01-07T10:29:11.222Z,11.60
2023-01-07T10:31:38.228Z,11.50
2023-01-07T10:34:13.498Z,11.50
2023-01-07T10:36:52.854Z,11.40
2023-01-07T10:39:35.939Z,11.30
2023-01-07T10:42:17.443Z,11.20
2023-01-07T10:45:02.695Z,11.20
2023-01-07T10:47:56.094Z,11.20
2023-01-07T10:50:59.749Z,11.20
2023-01-07T10:53:52.154Z,11.10
2023-01-07T10:56:37.425Z,11.10
2023-01-07T10:59:04.806Z,11.20
2023-01-07T11:01:44.294Z,11.20
2023-01-07T11:04:16.433Z,11.20
2023-01-07T11:06:58.438Z,11.30
2023-01-07T11:09:32.229Z,11.30
2023-01-07T11:12:05.010Z,11.30
2023-01-07T11:14:37.632Z,11.30
2023-01-07T11:17:32.330Z,11.20
2023-01-07T11:19:59.051Z,11.20
2023-01-07T11:22:31.613Z,11.20
2023-01-07T11:25:00.119Z,11.20
2023-01-07T11:27:31.168Z,11.20
2023-01-07T11:30:39.151Z,11.20
2023-01-07T11:33:07.216Z,11.20
2023-01-07T11:35:34.789Z,11.20
2023-01-07T11:38:01.569Z,11.20
2023-01-07T11:40:30.809Z,11.20
2023-01-07T11:43:03.460Z,11.20
2023-01-07T11:45:35.143Z,11.10
2023-01-07T11:48:04.959Z,11.20
2023-01-07T11:50:38.680Z,11.20
2023-01-07T11:53:14.291Z,11.20
2023-01-07T11:56:04.087Z,11.20
2023-01-07T11:58:33.637Z,11.20
2023-01-07T12:01:09.683Z,11.20
2023-01-07T12:03:43.249Z,11.20
2023-01-07T12:06:30.270Z,11.30
2023-01-07T12:09:14.990Z,11.30
2023-01-07T12:11:44.139Z,11.40
2023-01-07T12:14:17.024Z,11.60
2023-01-07T12:16:45.245Z,11.50
2023-01-07T12:19:32.878Z,11.40
2023-01-07T12:22:34.848Z,11.30
2023-01-07T12:25:19.289Z,11.30
2023-01-07T12:28:19.543Z,11.20
2023-01-07T12:31:05.215Z,11.20
2023-01-07T12:33:58.746Z,11.20
2023-01-07T12:36:56.251Z,11.10
2023-01-07T12:39:48.945Z,11.00
2023-01-07T12:42:28.372Z,11.10
2023-01-07T12:45:06.938Z,11.00
2023-01-07T12:47:37.491Z,11.00
2023-01-07T12:50:13.543Z,11.00
2023-01-07T12:52:44.964Z,11.00
2023-01-07T12:55:34.510Z,11.00
2023-01-07T12:58:28.542Z,11.00
2023-01-07T13:01:00.137Z,11.00
2023-01-07T13:03:54.808Z,11.00
2023-01-07T13:06:38.425Z,11.00
2023-01-07T13:09:31.137Z,11.00
2023-01-07T13:12:41.003Z,11.00
2023-01-07T13:15:15.334Z,11.00
2023-01-07T13:17:43.298Z,10.90
2023-01-07T13:20:15.511Z,10.90
2023-01-07T13:22:54.630Z,11.00
2023-01-07T13:25:24.279Z,11.00
2023-01-07T13:28:09.537Z,11.00
2023-01-07T13:30:51.384Z,11.00
2023-01-07T13:33:24.911Z,11.00
2023-01-07T13:36:01.942Z,11.00
2023-01-07T13:38:46.864Z,11.00
2023-01-07T13:41:27.763Z,11.00
2023-01-07T13:44:15.224Z,11.10
2023-01-07T13:46:45.410Z,11.20
2023-01-07T13:49:30.953Z,11.40
2023-01-07T13:52:16.774Z,11.40
2023-01-07T13:54:49.345Z,11.40
2023-01-07T13:57:40.385Z,11.50
2023-01-07T14:00:38.354Z,11.70
2023-01-07T14:03:24.081Z,11.70
2023-01-07T14:06:10.746Z,11.60
2023-01-07T14:08:37.584Z,11.30
2023-01-07T14:11:04.997Z,11.10
2023-01-07T14:14:02.569Z,11.10
2023-01-07T14:16:42.433Z,11.10
2023-01-07T14:19:09.029Z,11.00
2023-01-07T14:21:44.754Z,11.00
2023-01-07T14:24:45.798Z,11.10
2023-01-07T14:27:26.201Z,11.00
2023-01-07T14:29:56.475Z,11.00
2023-01-07T14:32:32.913Z,11.00
2023-01-07T14:35:02.587Z,11.00
2023-01-07T14:37:36.658Z,11.00
2023-01-07T14:40:26.126Z,10.90
2023-01-07T14:43:02.458Z,10.90
2023-01-07T14:45:49.145Z,10.90
2023-01-07T14:48:15.787Z,10.80
2023-01-07T14:51:07.404Z,10.80
2023-01-07T14:54:00.178Z,10.70
2023-01-07T14:56:42.369Z,10.70
2023-01-07T14:59:08.940Z,10.70
2023-01-07T15:02:02.248Z,10.60
2023-01-07T15:05:06.846Z,10.60
2023-01-07T15:07:38.366Z,10.70
2023-01-07T15:10:45.633Z,10.60
2023-01-07T15:13:36.291Z,10.60
2023-01-07T15:16:07.290Z,10.50
2023-01-07T15:18:51.251Z,10.50
2023-01-07T15:21:37.309Z,10.40
2023-01-07T15:24:21.931Z,10.40
2023-01-07T15:27:01.337Z,10.40
2023-01-07T15:30:10.206Z,10.30
2023-01-07T15:32:58.465Z,10.30
2023-01-07T15:35:39.892Z,10.20
2023-01-07T15:38:25.807Z,10.30
2023-01-07T15:40:53.346Z,10.30
2023-01-07T15:43:26.671Z,10.30
2023-01-07T15:46:06.320Z,10.30
2023-01-07T15:48:33.367Z,10.20
2023-01-07T15:51:00.489Z,10.20
2023-01-07T15:53:28.895Z,10.10
2023-01-07T15:56:01.900Z,10.10
2023-01-07T15:58:40.524Z,10.10
2023-01-07T16:01:13.897Z,10.20
2023-01-07T16:03:44.527Z,10.10
2023-01-07T16:06:39.158Z,10.10
2023-01-07T16:09:20.974Z,10.10
2023-01-07T16:11:47.776Z,10.10
2023-01-07T16:14:17.676Z,10.00
2023-01-07T16:16:44.806Z,10.00
2023-01-07T16:19:20.190Z,10.00
2023-01-07T16:21:59.601Z,9.80
2023-01-07T16:24:26.496Z,9.80
2023-01-07T16:26:57.662Z,9.70
2023-01-07T16:29:28.184Z,9.70
2023-01-07T16:31:56.168Z,9.70
2023-01-07T16:34:25.837Z,9.70
2023-01-07T16:37:00.126Z,9.70
2023-01-07T16:39:32.068Z,9.70
2023-01-07T16:42:17.381Z,9.70
2023-01-07T16:44:49.421Z,9.60
2023-01-07T16:47:17.718Z,9.50
2023-01-07T16:49:45.351Z,9.40
2023-01-07T16:52:14.239Z,9.40
2023-01-07T16:54:43.773Z,9.30
2023-01-07T16:57:10.563Z,9.40
2023-01-07T16:59:45.688Z,9.30
2023-01-07T17:02:31.273Z,9.30
2023-01-07T17:05:19.417Z,9.30
2023-01-07T17:07:55.630Z,9.30
2023-01-07T17:10:27.586Z,9.20
2023-01-07T17:13:01.022Z,9.30
2023-01-07T17:15:35.429Z,9.20
2023-01-07T17:18:11.128Z,9.10
2023-01-07T17:20:46.887Z,9.10
2023-01-07T17:23:33.529Z,9.10
2023-01-07T17:26:08.583Z,9.10
2023-01-07T17:28:44.048Z,9.10
2023-01-07T17:31:10.822Z,9.10
2023-01-07T17:33:37.795Z,9.10
2023-01-07T17:36:04.847Z,9.00
2023-01-07T17:38:31.836Z,9.00
2023-01-07T17:40:58.541Z,8.90
2023-01-07T17:43:35.820Z,8.90
2023-01-07T17:46:09.040Z,9.00
2023-01-07T17:48:36.429Z,9.00
2023-01-07T17:51:05.155Z,8.90
2023-01-07T17:53:46.636Z,8.90
2023-01-07T17:56:13.677Z,8.90
2023-01-07T17:58:41.230Z,8.90
2023-01-07T18:01:22.921Z,8.80
2023-01-07T18:03:51.899Z,8.70
2023-01-07T18:06:24.615Z,8.70
2023-01-07T18:08:52.459Z,8.70
2023-01-07T18:11:43.422Z,8.60
2023-01-07T18:14:13.543Z,8.50
2023-01-07T18:16:40.626Z,8.60
2023-01-07T18:19:08.374Z,8.50
2023-01-07T18:21:35.227Z,8.50
2023-01-07T18:24:02.026Z,8.50
2023-01-07T18:26:28.666Z,8.70
2023-01-07T18:28:55.355Z,8.80
2023-01-07T18:31:22.072Z,8.70
2023-01-07T18:33:49.517Z,8.80
2023-01-07T18:36:16.704Z,8.80
2023-01-07T18:38:43.496Z,8.70
2023-01-07T18:41:10.191Z,9.00
2023-01-07T18:43:36.936Z,8.90
2023-01-07T18:46:08.404Z,9.10
2023-01-07T18:48:36.035Z,9.10
2023-01-07T18:51:08.311Z,9.20
2023-01-07T18:53:34.968Z,9.40
2023-01-07T18:56:02.509Z,9.30
2023-01-07T18:58:29.273Z,9.30
2023-01-07T19:00:56.074Z,9.30
2023-01-07T19:03:22.775Z,9.30
2023-01-07T19:05:49.494Z,9.30
2023-01-07T19:08:16.554Z,9.30
2023-01-07T19:10:44.801Z,9.40
2023-01-07T19:13:11.790Z,9.30
2023-01-07T19:15:40.202Z,9.40
2023-01-07T19:18:07.723Z,9.30
2023-01-07T19:20:35.795Z,9.40
2023-01-07T19:23:02.465Z,9.50
2023-01-07T19:25:30.222Z,9.40
2023-01-07T19:27:57.778Z,9.40
2023-01-07T19:30:25.295Z,9.40
2023-01-07T19:32:53.144Z,9.30
2023-01-07T19:35:20.232Z,9.40
2023-01-07T19:37:46.964Z,9.40
2023-01-07T19:40:13.689Z,9.40
2023-01-07T19:42:40.419Z,9.30
2023-01-07T19:45:07.689Z,9.30
2023-01-07T19:47:35.348Z,9.40
2023-01-07T19:50:02.289Z,9.30
2023-01-07T19:52:29.222Z,9.30
2023-01-07T19:54:55.961Z,9.30
2023-01-07T19:57:22.637Z,9.30
2023-01-07T19:59:49.305Z,9.30
2023-01-07T20:02:16.860Z,9.30
2023-01-07T20:04:43.905Z,9.20
2023-01-07T20:07:10.605Z,9.30
2023-01-07T20:09:37.426Z,9.30
2023-01-07T20:12:04.385Z,9.30
2023-01-07T20:14:31.134Z,9.20
2023-01-07T20:16:57.937Z,9.20
2023-01-07T20:19:24.804Z,9.10
2023-01-07T20:21:51.580Z,9.10
2023-01-07T20:24:19.162Z,9.10
2023-01-07T20:26:45.816Z,9.00
2023-01-07T20:29:12.510Z,9.00
2023-01-07T20:31:39.533Z,9.00
2023-01-07T20:34:06.833Z,9.00
2023-01-07T20:36:34.439Z,9.00
2023-01-07T20:39:05.668Z,9.00
2023-01-07T20:41:34.205Z,9.00
2023-01-07T20:44:02.835Z,9.00
2023-01-07T20:46:30.678Z,9.00
2023-01-07T20:48:57.882Z,9.00
2023-01-07T20:51:24.626Z,9.00
2023-01-07T20:53:51.397Z,9.00
2023-01-07T20:56:21.844Z,9.00
2023-01-07T20:58:49.121Z,9.00
2023-01-07T21:01:19.024Z,9.10
2023-01-07T21:03:46.025Z,9.10
2023-01-07T21:06:14.606Z,9.20
2023-01-07T21:08:41.663Z,9.20
2023-01-07T21:11:20.052Z,9.20
2023-01-07T21:13:47.205Z,9.20
2023-01-07T21:16:14.334Z,9.20
2023-01-07T21:18:41.400Z,9.20
2023-01-07T21:21:37.569Z,9.20
2023-01-07T21:24:18.100Z,9.20
2023-01-07T21:27:17.738Z,9.20
2023-01-07T21:29:44.468Z,9.30
2023-01-07T21:32:11.154Z,9.40
2023-01-07T21:34:37.825Z,9.50
2023-01-07T21:37:04.501Z,9.50
2023-01-07T21:39:31.324Z,9.50
2023-01-07T21:41:58.006Z,9.40
2023-01-07T21:44:24.834Z,9.40
2023-01-07T21:46:51.521Z,9.30
2023-01-07T21:49:19.104Z,9.30
2023-01-07T21:51:46.007Z,9.30
2023-01-07T21:54:12.717Z,9.30
2023-01-07T21:56:39.464Z,9.30
2023-01-07T21:59:08.247Z,9.30
2023-01-07T22:01:35.128Z,9.30
2023-01-07T22:04:02.984Z,9.30
2023-01-07T22:06:34.235Z,9.40
2023-01-07T22:09:04.856Z,9.40
2023-01-07T22:11:32.585Z,9.40
2023-01-07T22:14:00.523Z,9.50
2023-01-07T22:16:30.351Z,9.50
2023-01-07T22:18:57.625Z,9.60
2023-01-07T22:21:24.593Z,9.60
2023-01-07T22:23:52.069Z,9.60
2023-01-07T22:26:20.195Z,9.60
2023-01-07T22:29:00.837Z,9.60
2023-01-07T22:31:32.395Z,9.60
2023-01-07T22:33:59.578Z,9.70
2023-01-07T22:36:38.000Z,9.90
2023-01-07T22:39:10.154Z,9.90
2023-01-07T22:41:37.547Z,9.90
2023-01-07T22:44:11.952Z,10.10
2023-01-07T22:46:42.024Z,10.10
2023-01-07T22:49:08.686Z,10.00
2023-01-07T22:51:39.939Z,10.00
2023-01-07T22:54:07.298Z,9.90
2023-01-07T22:56:34.696Z,9.90
2023-01-07T22:59:01.331Z,9.90
2023-01-07T23:01:28.064Z,9.90
2023-01-07T23:03:55.091Z,9.70
2023-01-07T23:06:21.726Z,9.60
2023-01-07T23:08:48.463Z,9.60
2023-01-07T23:11:35.834Z,9.50
2023-01-07T23:14:03.285Z,9.50
2023-01-07T23:16:30.112Z,9.60
2023-01-07T23:18:56.833Z,9.60
2023-01-07T23:21:23.617Z,9.50
2023-01-07T23:23:50.240Z,9.60
2023-01-07T23:26:16.938Z,9.60
2023-01-07T23:28:43.596Z,9.60
2023-01-07T23:31:11.274Z,9.70
2023-01-07T23:33:38.099Z,9.60
2023-01-07T23:36:09.491Z,9.60
2023-01-07T23:38:36.455Z,9.80
2023-01-07T23:41:05.416Z,9.80
2023-01-07T23:43:32.335Z,9.80
2023-01-07T23:46:00.760Z,9.90
2023-01-07T23:48:29.179Z,10.00
2023-01-07T23:50:56.675Z,10.00
2023-01-07T23:53:23.517Z,10.00
2023-01-07T23:55:55.009Z,10.00
2023-01-07T23:58:23.148Z,10.00
